• Join FlightAware (Why Join?)
  • Login
  • US Flag 
08:21PM EDT


 

Airport Tracker/Info


-or-


 

Live Flight TrackerFlight Track Log ✈ N165JH ✈ 06-Nov-2013 ✈ KTUL - KGMU

Flight Track Log - Related Links

Times and Time Zones

All times are in EST time to prevent confusion due to time zone crossing. See the N165JH flight status page for this flight to view local times or setup timezone preferences in your user account.

Time Position Orientation Groundspeed Altitude Reporting Facility
EST Latitude Longitude Course Direction KTS MPH feet Rate Location/Type
03:40PM 36.2033 -95.8831 103° East 100 115 1,200  Level Kansas City Center
03:42PM 36.2336 -95.8386 50° Northeast 125 144 2,300 600 Climbing Kansas City Center
03:42PM 36.2456 -95.8128 60° Northeast 159 183 2,500 360 Climbing Kansas City Center
03:43PM 36.2422 -95.7900 100° East 143 165 2,700 600 Climbing Kansas City Center
03:43PM 36.2367 -95.7594 103° East 169 194 3,100 660 Climbing Kansas City Center
03:44PM 36.2322 -95.7339 102° East 160 184 3,400 780 Climbing Kansas City Center
03:44PM 36.2228 -95.6967 107° East 159 183 4,100 840 Climbing Kansas City Center
03:45PM 36.2186 -95.6833 111° Southeast 158 182 4,300 660 Climbing Kansas City Center
03:45PM 36.2058 -95.6472 114° Southeast 156 180 4,800 540 Climbing Kansas City Center
03:46PM 36.1813 -95.4992 103° East  Level Estimated
03:46PM 36.2000 -95.6225 106° East 158 182 4,900  Level Kansas City Center
03:46PM 36.1906 -95.5922 111° Southeast 164 189 5,000 60 Climbing Kansas City Center
03:47PM 36.1842 -95.5678 108° East 163 188 5,000  Level Kansas City Center
03:47PM 36.1750 -95.5347 109° East 183 211 5,000  Level Kansas City Center
03:48PM 36.1683 -95.5078 107° East 174 200 5,000  Level Kansas City Center
03:48PM 36.1594 -95.4772 110° East 188 216 5,000  Level Kansas City Center
03:49PM 36.1506 -95.4483 111° Southeast 181 208 5,000  Level Kansas City Center
03:50PM 36.1306 -95.3889 113° Southeast 185 213 5,000  Level Kansas City Center
03:51PM 36.1150 -95.3278 107° East 186 214 5,000  Level Kansas City Center
03:52PM 36.0950 -95.2547 109° East 187 215 5,000  Level Kansas City Center
03:53PM 36.0783 -95.1936 109° East 187 215 5,000  Level Kansas City Center
03:54PM 36.0606 -95.1322 110° East 189 217 5,000  Level Kansas City Center
03:55PM 36.0431 -95.0717 110° East 188 216 5,000  Level Kansas City Center
03:56PM 36.0264 -95.0114 109° East 187 215 5,000  Level Kansas City Center
03:57PM 36.0194 -94.9503 98° East 184 212 5,000 60 Level Kansas City Center
03:58PM 36.0164 -94.8764 93° East 182 209 5,200 240 Climbing Kansas City Center
03:59PM 36.0136 -94.8164 93° East 178 205 5,500 240 Climbing Kansas City Center
04:00PM 36.0106 -94.7542 93° East 179 206 5,700 180 Climbing Kansas City Center
04:01PM 36.0086 -94.6928 92° East 179 206 5,900 180 Climbing Kansas City Center
04:02PM 36.0058 -94.6283 93° East 183 211 6,100 180 Climbing Kansas City Center
04:03PM 36.0028 -94.5494 93° East 183 211 6,300 120 Climbing Memphis Center
04:04PM 35.9986 -94.4825 94° East 183 211 6,400 60 Climbing Memphis Center
04:05PM 35.9967 -94.4158 92° East 183 211 6,500  Climbing Memphis Center
04:06PM 35.9928 -94.3464 94° East 188 216 6,500  Level Memphis Center
04:07PM 35.9886 -94.2819 95° East 188 216 6,600  Climbing Memphis Center
04:08PM 35.9864 -94.2125 92° East 193 222 6,600  Level Memphis Center
04:09PM 35.9864 -94.1433 90° East 198 228 6,700  Climbing Memphis Center
04:10PM 35.9781 -94.0761 99° East 198 228 6,700  Level Memphis Center
04:11PM 35.9783 -93.9994 90° East 209 241 6,800  Climbing Memphis Center
04:13PM 35.9735 -93.9336 95° East  Level FlightAware Approximate
04:14PM 35.9672 -93.8064 95° East 202 232 6,900  Level Memphis Center
04:15PM 35.9647 -93.7372 93° East 202 232 6,900  Level Memphis Center
04:16PM 35.9603 -93.6703 95° East 202 232 7,000 60 Climbing Memphis Center
04:17PM 35.9578 -93.6061 93° East 202 232 7,100  Climbing Memphis Center
04:18PM 35.9533 -93.5367 95° East 196 226 7,100  Level Memphis Center
04:19PM 35.9489 -93.4725 95° East 196 226 7,100  Level Memphis Center
04:20PM 35.9396 -93.4808 95° East  Level FlightAware Approximate
04:20PM 35.9464 -93.4056 93° East 196 226 7,100  Level Memphis Center
04:21PM 35.9417 -93.3389 95° East 196 226 7,100  Level Memphis Center
04:22PM 35.9411 -93.2719 91° East 196 226 7,100  Level Memphis Center
04:23PM 35.9364 -93.2053 95° East 196 226 7,100  Level Memphis Center
04:24PM 35.9317 -93.1386 95° East 196 226 7,100  Level Memphis Center
04:25PM 35.9269 -93.0692 95° East 196 226 7,100  Level Memphis Center
04:26PM 35.9242 -93.0025 93° East 196 226 7,100  Level Memphis Center
04:27PM 35.9214 -92.9433 93° East 196 226 7,100  Level Memphis Center
04:28PM 35.9186 -92.8767 93° East 196 226 7,100  Level Memphis Center
04:29PM 35.9136 -92.8072 95° East 201 231 7,100  Level Memphis Center
04:30PM 35.9108 -92.7406 93° East 201 231 7,100 -60 Level Memphis Center
04:31PM 35.9058 -92.6739 95° East 201 231 7,000 -60 Descending Memphis Center
04:32PM 35.9028 -92.6044 93° East 201 231 7,000  Level Memphis Center
04:33PM 35.8997 -92.5403 93° East 196 226 7,000  Level Memphis Center
04:34PM 35.8947 -92.4711 95° East 196 226 7,000  Level Memphis Center
04:35PM 35.8894 -92.4069 96° East 196 226 7,000  Level Memphis Center
04:36PM 35.8844 -92.3400 95° East 196 226 7,000  Level Memphis Center
04:37PM 35.8833 -92.2733 91° East 196 226 7,000  Level Memphis Center
04:38PM 35.8783 -92.1964 95° East 196 226 7,000  Level Memphis Center
04:39PM 35.8767 -92.1556 93° East 196 226 7,000  Level Memphis Center
04:40PM 35.8675 -92.0706 98° East 183 211 7,000  Level Memphis Center
04:41PM 35.8664 -92.0014 91° East 194 223 7,100  Climbing Memphis Center
04:42PM 35.8589 -91.9322 98° East 200 230 7,000  Descending Memphis Center
04:43PM 35.8575 -91.8681 92° East 200 230 7,100  Climbing Memphis Center
04:44PM 35.8522 -91.7989 95° East 194 223 7,000  Descending Memphis Center
04:45PM 35.8467 -91.7322 96° East 199 229 7,100  Climbing Memphis Center
04:46PM 35.8431 -91.6681 94° East 199 229 7,100  Level Memphis Center
04:47PM 35.8397 -91.6014 94° East 199 229 7,100  Level Memphis Center
04:48PM 35.8361 -91.5375 94° East 199 229 7,100 -60 Level Memphis Center
04:49PM 35.8306 -91.4708 96° East 199 229 7,000 -120 Descending Memphis Center
04:51PM 35.8130 -91.3928 95° East  Level FlightAware Approximate
04:51PM 35.8192 -91.3350 95° East 199 229 6,900  Level Memphis Center
04:52PM 35.8114 -91.2683 98° East 199 229 7,000  Climbing Memphis Center
04:53PM 35.8097 -91.2017 92° East 199 229 6,900  Descending Memphis Center
04:54PM 35.8039 -91.1350 96° East 199 229 7,000  Climbing Memphis Center
04:55PM 35.8022 -91.0711 92° East 199 229 7,000 -60 Level Memphis Center
04:56PM 35.7942 -91.0069 99° East 199 229 6,900 -60 Descending Memphis Center
04:57PM 35.7944 -90.9431 90° East 199 229 6,900  Level Memphis Center
04:58PM 35.7822 -90.8714 102° East 199 229 6,900  Level Memphis Center
04:59PM 35.7825 -90.8075 90° East 199 229 6,900  Level Memphis Center
05:00PM 35.7764 -90.7408 96° East 199 229 6,900  Level Memphis Center
05:01PM 35.7703 -90.6742 96° East 199 229 7,000  Climbing Memphis Center
05:02PM 35.7642 -90.6078 96° East 199 229 6,900 -60 Descending Memphis Center
05:03PM 35.7603 -90.5386 94° East 199 229 6,900  Level Memphis Center
05:04PM 35.7542 -90.4747 97° East 199 229 6,900  Level Memphis Center
05:05PM 35.7519 -90.4081 92° East 199 229 7,000  Climbing Memphis Center
05:06PM 35.7458 -90.3417 96° East 199 229 6,900  Descending Memphis Center
05:07PM 35.7394 -90.2753 97° East 199 229 7,000  Climbing Memphis Center
05:08PM 35.7331 -90.2061 96° East 199 229 6,900 -60 Descending Memphis Center
05:09PM 35.7289 -90.1369 94° East 199 229 6,900  Level Memphis Center
05:10PM 35.7244 -90.0731 95° East 199 229 7,000  Climbing Memphis Center
05:11PM 35.7181 -90.0042 96° East 199 229 7,000  Level Memphis Center
05:12PM 35.7136 -89.9350 95° East 199 229 7,000  Level Memphis Center
05:13PM 35.7072 -89.8636 96° East 199 229 7,000  Level Memphis Center
05:14PM 35.7006 -89.7972 97° East 199 229 7,000  Level Memphis Center
05:15PM 35.6961 -89.7283 95° East 199 229 7,000  Level Memphis Center
05:16PM 35.6917 -89.6617 95° East 199 229 7,000  Level Memphis Center
05:17PM 35.6869 -89.5928 95° East 199 229 7,000  Level Memphis Center
05:18PM 35.6825 -89.5239 95° East 199 229 7,000  Level Memphis Center
05:19PM 35.6756 -89.4575 97° East 204 235 7,000  Level Memphis Center
05:20PM 35.6689 -89.3833 96° East 194 223 7,000  Level Memphis Center
05:21PM 35.6619 -89.3144 97° East 200 230 7,000  Level Memphis Center
05:22PM 35.6572 -89.2506 95° East 200 230 7,000  Level Memphis Center
05:23PM 35.6547 -89.1842 93° East 200 230 7,000  Level Memphis Center
05:24PM 35.6458 -89.1231 100° East 200 230 7,000  Level Memphis Center
05:25PM 35.6408 -89.0619 96° East 200 230 7,000  Level Memphis Center
05:26PM 35.6339 -88.9803 96° East 200 230 7,000  Level Memphis Center
05:27PM 35.6289 -88.9139 95° East 200 230 7,000  Level Memphis Center
05:28PM 35.6219 -88.8553 98° East 200 230 7,000  Level Memphis Center
05:29PM 35.6189 -88.7786 93° East 211 243 7,000  Level Memphis Center
05:30PM 35.6097 -88.7175 100° East 200 230 7,000  Level Memphis Center
05:31PM 35.6025 -88.6539 98° East 200 230 7,000  Level Memphis Center
05:32PM 35.5975 -88.5850 95° East 200 230 7,000  Level Memphis Center
05:33PM 35.5903 -88.5214 98° East 200 230 7,000  Level Memphis Center
05:34PM 35.5850 -88.4500 95° East 200 230 7,000  Level Memphis Center
05:35PM 35.5797 -88.3864 96° East 200 230 7,000  Level Memphis Center
05:36PM 35.5725 -88.3228 98° East 200 230 7,000  Level Memphis Center
05:37PM 35.5653 -88.2592 98° East 195 224 7,000  Level Memphis Center
05:38PM 35.5600 -88.1956 96° East 195 224 7,000  Level Memphis Center
05:39PM 35.5567 -88.1292 94° East 195 224 7,000  Level Memphis Center
05:40PM 35.5472 -88.0631 100° East 194 223 7,000  Level Memphis Center
05:41PM 35.5397 -87.9944 98° East 194 223 7,000  Level Memphis Center
05:42PM 35.5342 -87.9283 96° East 194 223 7,000  Level Memphis Center
05:43PM 35.5289 -87.8647 96° East 194 223 7,000  Level Memphis Center
05:44PM 35.5192 -87.7986 100° East 194 223 7,000  Level Memphis Center
05:45PM 35.5156 -87.7350 94° East 194 223 7,000  Level Memphis Center
05:46PM 35.5058 -87.6664 100° East 202 232 7,000  Level Memphis Center
05:47PM 35.5022 -87.6003 94° East 202 232 7,000  Level Memphis Center
05:48PM 35.4944 -87.5342 98° East 202 232 7,000  Level Memphis Center
05:49PM 35.4867 -87.4681 98° East 197 227 7,000  Level Memphis Center
05:50PM 35.4811 -87.4044 96° East 197 227 7,000  Level Memphis Center
05:51PM 35.4733 -87.3461 99° East 197 227 7,000  Level Memphis Center
05:52PM 35.4678 -87.2828 96° East 197 227 7,000  Level Memphis Center
05:53PM 35.4597 -87.2167 98° East 197 227 7,000  Level Memphis Center
05:54PM 35.4539 -87.1533 96° East 197 227 7,000  Level Memphis Center
05:55PM 35.4481 -87.0847 96° East 197 227 7,000  Level Memphis Center
05:56PM 35.4400 -87.0211 99° East 197 227 7,000  Level Memphis Center
05:57PM 35.4322 -86.9603 99° East 197 227 7,000  Level Memphis Center
05:58PM 35.4261 -86.8919 96° East 197 227 7,000  Level Memphis Center
05:59PM 35.4178 -86.8208 98° East 197 227 7,000  Level Memphis Center
06:00PM 35.4117 -86.7497 96° East 204 235 7,000  Level Memphis Center
06:01PM 35.4033 -86.6814 98° East 196 226 7,000  Level Memphis Center
06:02PM 35.3953 -86.6231 100° East 196 226 7,000  Level Memphis Center
06:03PM 35.3892 -86.5522 96° East 203 234 7,000  Level Memphis Center
06:04PM 35.3806 -86.4836 99° East 203 234 7,000  Level Memphis Center
06:05PM 35.3744 -86.4153 96° East 197 227 7,000  Level Memphis Center
06:06PM 35.3661 -86.3519 99° East 197 227 7,000  Level Memphis Center
06:07PM 35.3597 -86.2836 97° East 205 236 7,000  Level Memphis Center
06:08PM 35.3514 -86.2178 99° East 199 229 7,000  Level Memphis Center
06:09PM 35.3428 -86.1494 99° East 205 236 7,100  Climbing Memphis Center
06:10PM 35.3364 -86.0836 97° East 195 224 7,100  Level Memphis Center
06:11PM 35.3278 -86.0181 99° East 195 224 7,100  Level Memphis Center
06:13PM 35.3180 -85.9397 99° East  Level FlightAware Approximate
06:20PM 35.2613 -85.4893 99° East  Level FlightAware Approximate
06:21PM 35.2533 -85.4249 99° East  Level FlightAware Approximate
06:22PM 35.2454 -85.3606 99° East  Level FlightAware Approximate
06:23PM 35.2374 -85.2963 99° East  Level FlightAware Approximate
06:24PM 35.2294 -85.2320 99° East  Level FlightAware Approximate
06:25PM 35.2213 -85.1677 99° East  Level FlightAware Approximate
06:26PM 35.2132 -85.1034 99° East  Level FlightAware Approximate
06:27PM 35.2051 -85.0391 99° East  Level FlightAware Approximate
06:27PM 35.2036 -84.9869 99° East 219 252 7,200  Level Atlanta Center
06:28PM 35.1969 -84.9749 99° East  Level FlightAware Approximate
06:28PM 35.1997 -84.9208 94° East 204 235 7,200  Level Atlanta Center
06:29PM 35.1887 -84.9106 99° East  Level FlightAware Approximate
06:29PM 35.1917 -84.8775 103° East 245 282 7,200  Level Atlanta Center
06:30PM 35.1805 -84.8464 99° East  Level FlightAware Approximate
06:30PM 35.1839 -84.8011 97° East 198 228 7,200  Level Atlanta Center
06:31PM 35.1722 -84.7822 99° East  Level FlightAware Approximate
06:31PM 35.1739 -84.7375 101° East 184 212 7,200  Level Atlanta Center
06:32PM 35.1640 -84.7180 99° East  Level FlightAware Approximate
06:32PM 35.1681 -84.6739 96° East 184 212 7,200  Level Atlanta Center
06:33PM 35.1578 -84.6128 102° East 184 212 7,200  Level Atlanta Center
06:34PM 35.1517 -84.5519 97° East 184 212 7,200  Level Atlanta Center
06:35PM 35.1436 -84.4908 99° East 184 212 7,200 -60 Level Atlanta Center
06:36PM 35.1356 -84.4300 99° East 184 212 7,100  Descending Atlanta Center
06:37PM 35.1275 -84.3689 99° East 184 212 7,200 240 Climbing Atlanta Center
06:38PM 35.1214 -84.3131 98° East 178 205 7,600 360 Climbing Atlanta Center
06:39PM 35.1131 -84.2547 100° East 173 199 8,000 360 Climbing Atlanta Center
06:40PM 35.1047 -84.1986 100° East 168 193 8,400 360 Climbing Atlanta Center
06:41PM 35.0986 -84.1403 97° East 168 193 8,800 300 Climbing Atlanta Center
06:42PM 35.0903 -84.0819 100° East 168 193 9,100 120 Climbing Atlanta Center
06:43PM 35.0839 -84.0183 97° East 168 193 9,100  Level Atlanta Center
06:44PM 35.0756 -83.9653 101° East 173 199 9,100  Level Atlanta Center
06:45PM 35.0672 -83.8992 99° East 187 215 9,100  Level Atlanta Center
06:46PM 35.0567 -83.8358 101° East 187 215 9,100  Level Atlanta Center
06:47PM 35.0503 -83.7725 97° East 187 215 9,100  Level Atlanta Center
06:48PM 35.0397 -83.7089 101° East 187 215 9,100  Level Atlanta Center
06:49PM 35.0311 -83.6431 99° East 187 215 9,100  Level Atlanta Center
06:50PM 35.0225 -83.5797 99° East 187 215 9,100  Level Atlanta Center
06:51PM 35.0097 -83.5086 102° East 187 215 9,200  Climbing Atlanta Center
06:52PM 35.0011 -83.4403 99° East 195 224 9,100 -60 Descending Atlanta Center
06:53PM 34.9925 -83.3794 100° East 190 219 9,100  Level Atlanta Center
06:54PM 34.9839 -83.3161 99° East 190 219 9,100  Level Atlanta Center
06:55PM 34.9731 -83.2556 102° East 184 212 9,100  Level Atlanta Center
06:56PM 34.9664 -83.1897 97° East 184 212 9,200  Climbing Atlanta Center
06:57PM 34.9597 -83.1289 98° East 184 212 9,200  Level Atlanta Center
06:58PM 34.9486 -83.0708 103° East 184 212 9,200  Level Atlanta Center
06:59PM 34.9419 -83.0025 97° East 184 212 9,200  Level Atlanta Center
07:00PM 34.9331 -82.9442 101° East 178 205 9,200 -60 Level Atlanta Center
07:01PM 34.9219 -82.8836 103° East 178 205 9,100 -60 Descending Atlanta Center
07:02PM 34.9153 -82.8203 97° East 185 213 9,100  Level Atlanta Center
07:03PM 34.9061 -82.7572 100° East 179 206 9,100 -180 Level Atlanta Center
07:04PM 34.8972 -82.6914 99° East 185 213 8,800 -600 Descending Atlanta Center
07:05PM 34.8861 -82.6308 103° East 185 213 8,000 -960 Descending Atlanta Center
07:06PM 34.8792 -82.5703 98° East 185 213 6,900 -1,140 Descending Atlanta Center
07:08PM 34.8698 -82.5046 100° East  Level FlightAware Approximate
07:15PM 34.8333 -82.3500 141° Southeast  Level FlightAware Approximate
07:16PM 34.8479 -82.3500 141° Southeast  Level Estimated
07:17PM 34.8479 -82.3500 141° Southeast  Level Estimated
07:18PM 34.8479 -82.3500 141° Southeast  Level Estimated
07:19PM 34.8479 -82.3500 141° Southeast  Level Estimated